sensor_id;sensor_type;location;lat;lon;timestamp;P1;durP1;ratioP1;P2;durP2;ratioP2
11598;SDS011;5855;48.840;9.188;2023-05-16T00:02:00;9.60;;;8.80;;
11598;SDS011;5855;48.840;9.188;2023-05-16T00:04:27;10.05;;;9.02;;
11598;SDS011;5855;48.840;9.188;2023-05-16T00:06:56;14.68;;;10.38;;
11598;SDS011;5855;48.840;9.188;2023-05-16T00:09:22;11.43;;;10.32;;
11598;SDS011;5855;48.840;9.188;2023-05-16T00:11:51;12.88;;;11.57;;
11598;SDS011;5855;48.840;9.188;2023-05-16T00:14:18;12.88;;;11.68;;
11598;SDS011;5855;48.840;9.188;2023-05-16T00:16:44;12.45;;;11.27;;
11598;SDS011;5855;48.840;9.188;2023-05-16T00:19:11;12.63;;;11.32;;
11598;SDS011;5855;48.840;9.188;2023-05-16T00:21:39;13.15;;;11.85;;
11598;SDS011;5855;48.840;9.188;2023-05-16T00:24:06;12.27;;;11.00;;
11598;SDS011;5855;48.840;9.188;2023-05-16T00:26:33;11.57;;;10.43;;
11598;SDS011;5855;48.840;9.188;2023-05-16T00:29:01;10.65;;;9.65;;
11598;SDS011;5855;48.840;9.188;2023-05-16T00:31:28;12.68;;;10.63;;
11598;SDS011;5855;48.840;9.188;2023-05-16T00:33:54;11.32;;;10.13;;
11598;SDS011;5855;48.840;9.188;2023-05-16T00:36:21;11.25;;;10.15;;
11598;SDS011;5855;48.840;9.188;2023-05-16T00:38:48;11.02;;;10.02;;
11598;SDS011;5855;48.840;9.188;2023-05-16T00:41:15;12.07;;;10.80;;
11598;SDS011;5855;48.840;9.188;2023-05-16T00:43:42;14.25;;;12.75;;
11598;SDS011;5855;48.840;9.188;2023-05-16T00:46:11;14.18;;;12.77;;
11598;SDS011;5855;48.840;9.188;2023-05-16T00:48:37;16.23;;;13.45;;
11598;SDS011;5855;48.840;9.188;2023-05-16T00:51:04;14.50;;;13.00;;
11598;SDS011;5855;48.840;9.188;2023-05-16T00:53:33;14.77;;;13.27;;
11598;SDS011;5855;48.840;9.188;2023-05-16T00:56:00;14.55;;;13.05;;
11598;SDS011;5855;48.840;9.188;2023-05-16T00:58:28;14.88;;;13.18;;
11598;SDS011;5855;48.840;9.188;2023-05-16T01:00:58;12.88;;;11.68;;
11598;SDS011;5855;48.840;9.188;2023-05-16T01:03:27;11.73;;;10.63;;
11598;SDS011;5855;48.840;9.188;2023-05-16T01:05:54;10.68;;;9.63;;
11598;SDS011;5855;48.840;9.188;2023-05-16T01:08:22;10.35;;;9.27;;
11598;SDS011;5855;48.840;9.188;2023-05-16T01:10:51;10.20;;;9.23;;
11598;SDS011;5855;48.840;9.188;2023-05-16T01:13:26;11.10;;;10.05;;
11598;SDS011;5855;48.840;9.188;2023-05-16T01:16:02;11.57;;;10.50;;
11598;SDS011;5855;48.840;9.188;2023-05-16T01:18:39;13.45;;;12.15;;
11598;SDS011;5855;48.840;9.188;2023-05-16T01:21:11;13.50;;;12.25;;
11598;SDS011;5855;48.840;9.188;2023-05-16T01:23:48;16.17;;;14.57;;
11598;SDS011;5855;48.840;9.188;2023-05-16T01:26:19;19.27;;;16.70;;
11598;SDS011;5855;48.840;9.188;2023-05-16T01:28:48;22.02;;;19.80;;
11598;SDS011;5855;48.840;9.188;2023-05-16T01:31:16;21.60;;;19.25;;
11598;SDS011;5855;48.840;9.188;2023-05-16T01:33:43;22.42;;;20.05;;
11598;SDS011;5855;48.840;9.188;2023-05-16T01:36:12;23.02;;;20.58;;
11598;SDS011;5855;48.840;9.188;2023-05-16T01:38:49;22.83;;;20.63;;
11598;SDS011;5855;48.840;9.188;2023-05-16T01:41:28;24.58;;;22.02;;
11598;SDS011;5855;48.840;9.188;2023-05-16T01:44:05;24.50;;;21.90;;
11598;SDS011;5855;48.840;9.188;2023-05-16T01:46:36;24.45;;;21.83;;
11598;SDS011;5855;48.840;9.188;2023-05-16T01:49:09;25.70;;;22.77;;
11598;SDS011;5855;48.840;9.188;2023-05-16T01:51:42;26.33;;;23.67;;
11598;SDS011;5855;48.840;9.188;2023-05-16T01:54:13;26.08;;;23.38;;
11598;SDS011;5855;48.840;9.188;2023-05-16T01:56:45;27.92;;;24.95;;
11598;SDS011;5855;48.840;9.188;2023-05-16T01:59:17;28.25;;;25.13;;
11598;SDS011;5855;48.840;9.188;2023-05-16T02:01:45;29.33;;;26.17;;
11598;SDS011;5855;48.840;9.188;2023-05-16T02:04:12;29.25;;;26.25;;
11598;SDS011;5855;48.840;9.188;2023-05-16T02:06:39;29.70;;;26.50;;
11598;SDS011;5855;48.840;9.188;2023-05-16T02:09:06;30.52;;;27.15;;
11598;SDS011;5855;48.840;9.188;2023-05-16T02:11:33;31.50;;;27.48;;
11598;SDS011;5855;48.840;9.188;2023-05-16T02:14:01;30.35;;;27.13;;
11598;SDS011;5855;48.840;9.188;2023-05-16T02:16:28;33.10;;;29.60;;
11598;SDS011;5855;48.840;9.188;2023-05-16T02:18:56;35.40;;;28.95;;
11598;SDS011;5855;48.840;9.188;2023-05-16T02:21:22;33.90;;;29.33;;
11598;SDS011;5855;48.840;9.188;2023-05-16T02:23:49;32.88;;;29.38;;
11598;SDS011;5855;48.840;9.188;2023-05-16T02:26:16;34.22;;;29.17;;
11598;SDS011;5855;48.840;9.188;2023-05-16T02:28:43;36.65;;;30.98;;
11598;SDS011;5855;48.840;9.188;2023-05-16T02:31:11;36.85;;;30.65;;
11598;SDS011;5855;48.840;9.188;2023-05-16T02:33:38;36.45;;;30.58;;
11598;SDS011;5855;48.840;9.188;2023-05-16T02:36:05;38.08;;;31.05;;
11598;SDS011;5855;48.840;9.188;2023-05-16T02:38:33;35.05;;;30.80;;
11598;SDS011;5855;48.840;9.188;2023-05-16T02:40:59;39.20;;;32.15;;
11598;SDS011;5855;48.840;9.188;2023-05-16T02:43:26;38.40;;;31.75;;
11598;SDS011;5855;48.840;9.188;2023-05-16T02:45:53;37.03;;;32.17;;
11598;SDS011;5855;48.840;9.188;2023-05-16T02:48:21;40.70;;;33.53;;
11598;SDS011;5855;48.840;9.188;2023-05-16T02:50:48;40.17;;;33.35;;
11598;SDS011;5855;48.840;9.188;2023-05-16T02:53:16;41.30;;;32.83;;
11598;SDS011;5855;48.840;9.188;2023-05-16T02:55:42;37.22;;;32.85;;
11598;SDS011;5855;48.840;9.188;2023-05-16T02:58:09;39.22;;;32.15;;
11598;SDS011;5855;48.840;9.188;2023-05-16T03:00:36;43.17;;;33.30;;
11598;SDS011;5855;48.840;9.188;2023-05-16T03:03:03;41.13;;;33.88;;
11598;SDS011;5855;48.840;9.188;2023-05-16T03:05:31;45.15;;;34.90;;
11598;SDS011;5855;48.840;9.188;2023-05-16T03:07:58;38.15;;;33.47;;
11598;SDS011;5855;48.840;9.188;2023-05-16T03:10:25;44.60;;;34.58;;
11598;SDS011;5855;48.840;9.188;2023-05-16T03:12:52;41.38;;;32.65;;
11598;SDS011;5855;48.840;9.188;2023-05-16T03:15:19;40.25;;;34.08;;
11598;SDS011;5855;48.840;9.188;2023-05-16T03:17:46;42.65;;;34.60;;
11598;SDS011;5855;48.840;9.188;2023-05-16T03:20:13;42.38;;;34.50;;
11598;SDS011;5855;48.840;9.188;2023-05-16T03:22:41;43.33;;;35.38;;
11598;SDS011;5855;48.840;9.188;2023-05-16T03:25:09;46.25;;;37.05;;
11598;SDS011;5855;48.840;9.188;2023-05-16T03:27:36;43.30;;;35.80;;
11598;SDS011;5855;48.840;9.188;2023-05-16T03:30:03;49.35;;;36.90;;
11598;SDS011;5855;48.840;9.188;2023-05-16T03:32:31;49.50;;;37.42;;
11598;SDS011;5855;48.840;9.188;2023-05-16T03:34:58;45.35;;;36.05;;
11598;SDS011;5855;48.840;9.188;2023-05-16T03:37:25;52.72;;;38.53;;
11598;SDS011;5855;48.840;9.188;2023-05-16T03:39:54;51.33;;;38.22;;
11598;SDS011;5855;48.840;9.188;2023-05-16T03:42:29;52.58;;;39.30;;
11598;SDS011;5855;48.840;9.188;2023-05-16T03:44:56;52.20;;;39.33;;
11598;SDS011;5855;48.840;9.188;2023-05-16T03:47:23;54.67;;;40.95;;
11598;SDS011;5855;48.840;9.188;2023-05-16T03:49:50;56.03;;;41.05;;
11598;SDS011;5855;48.840;9.188;2023-05-16T03:52:17;58.92;;;42.45;;
11598;SDS011;5855;48.840;9.188;2023-05-16T03:54:44;54.47;;;40.90;;
11598;SDS011;5855;48.840;9.188;2023-05-16T03:57:13;58.35;;;41.22;;
11598;SDS011;5855;48.840;9.188;2023-05-16T03:59:40;56.53;;;41.75;;
11598;SDS011;5855;48.840;9.188;2023-05-16T04:02:07;55.35;;;41.50;;
11598;SDS011;5855;48.840;9.188;2023-05-16T04:04:34;53.10;;;41.05;;
11598;SDS011;5855;48.840;9.188;2023-05-16T04:07:01;56.67;;;42.05;;
11598;SDS011;5855;48.840;9.188;2023-05-16T04:09:28;56.38;;;41.95;;
11598;SDS011;5855;48.840;9.188;2023-05-16T04:11:55;55.30;;;41.33;;
11598;SDS011;5855;48.840;9.188;2023-05-16T04:14:24;52.80;;;40.63;;
11598;SDS011;5855;48.840;9.188;2023-05-16T04:16:51;53.72;;;41.50;;
11598;SDS011;5855;48.840;9.188;2023-05-16T04:19:18;54.13;;;39.78;;
11598;SDS011;5855;48.840;9.188;2023-05-16T04:21:45;56.80;;;42.53;;
11598;SDS011;5855;48.840;9.188;2023-05-16T04:24:12;57.38;;;41.65;;
11598;SDS011;5855;48.840;9.188;2023-05-16T04:26:39;60.50;;;41.70;;
11598;SDS011;5855;48.840;9.188;2023-05-16T04:29:05;51.75;;;40.45;;
11598;SDS011;5855;48.840;9.188;2023-05-16T04:31:34;53.38;;;39.92;;
11598;SDS011;5855;48.840;9.188;2023-05-16T04:34:01;57.03;;;41.38;;
11598;SDS011;5855;48.840;9.188;2023-05-16T04:36:28;56.38;;;42.10;;
11598;SDS011;5855;48.840;9.188;2023-05-16T04:38:55;53.17;;;40.40;;
11598;SDS011;5855;48.840;9.188;2023-05-16T04:41:22;54.58;;;41.90;;
11598;SDS011;5855;48.840;9.188;2023-05-16T04:43:49;51.67;;;39.63;;
11598;SDS011;5855;48.840;9.188;2023-05-16T04:46:18;54.15;;;40.88;;
11598;SDS011;5855;48.840;9.188;2023-05-16T04:48:47;53.60;;;39.70;;
11598;SDS011;5855;48.840;9.188;2023-05-16T04:51:14;56.47;;;41.58;;
11598;SDS011;5855;48.840;9.188;2023-05-16T04:53:41;50.88;;;39.83;;
11598;SDS011;5855;48.840;9.188;2023-05-16T04:56:07;52.42;;;39.20;;
11598;SDS011;5855;48.840;9.188;2023-05-16T04:58:34;54.17;;;40.00;;
11598;SDS011;5855;48.840;9.188;2023-05-16T05:01:01;46.45;;;38.72;;
11598;SDS011;5855;48.840;9.188;2023-05-16T05:03:28;52.70;;;40.83;;
11598;SDS011;5855;48.840;9.188;2023-05-16T05:05:56;49.05;;;39.30;;
11598;SDS011;5855;48.840;9.188;2023-05-16T05:08:23;53.40;;;41.38;;
11598;SDS011;5855;48.840;9.188;2023-05-16T05:10:50;48.28;;;38.67;;
11598;SDS011;5855;48.840;9.188;2023-05-16T05:13:17;50.30;;;40.30;;
11598;SDS011;5855;48.840;9.188;2023-05-16T05:15:43;54.40;;;41.03;;
11598;SDS011;5855;48.840;9.188;2023-05-16T05:18:10;50.55;;;39.92;;
11598;SDS011;5855;48.840;9.188;2023-05-16T05:20:37;49.13;;;39.15;;
11598;SDS011;5855;48.840;9.188;2023-05-16T05:23:05;50.85;;;40.08;;
11598;SDS011;5855;48.840;9.188;2023-05-16T05:25:32;51.45;;;38.22;;
11598;SDS011;5855;48.840;9.188;2023-05-16T05:28:01;51.78;;;39.25;;
11598;SDS011;5855;48.840;9.188;2023-05-16T05:30:28;51.20;;;40.45;;
11598;SDS011;5855;48.840;9.188;2023-05-16T05:32:55;49.80;;;39.00;;
11598;SDS011;5855;48.840;9.188;2023-05-16T05:35:22;48.22;;;38.95;;
11598;SDS011;5855;48.840;9.188;2023-05-16T05:37:49;48.45;;;38.47;;
11598;SDS011;5855;48.840;9.188;2023-05-16T05:40:17;52.53;;;38.67;;
11598;SDS011;5855;48.840;9.188;2023-05-16T05:42:44;48.28;;;37.58;;
11598;SDS011;5855;48.840;9.188;2023-05-16T05:45:11;49.20;;;38.95;;
11598;SDS011;5855;48.840;9.188;2023-05-16T05:47:37;48.45;;;38.00;;
11598;SDS011;5855;48.840;9.188;2023-05-16T05:50:05;48.97;;;38.47;;
11598;SDS011;5855;48.840;9.188;2023-05-16T05:52:35;51.55;;;40.38;;
11598;SDS011;5855;48.840;9.188;2023-05-16T05:55:02;45.05;;;37.75;;
11598;SDS011;5855;48.840;9.188;2023-05-16T05:57:31;48.90;;;37.75;;
11598;SDS011;5855;48.840;9.188;2023-05-16T05:59:58;46.88;;;37.53;;
11598;SDS011;5855;48.840;9.188;2023-05-16T06:02:25;44.88;;;36.67;;
11598;SDS011;5855;48.840;9.188;2023-05-16T06:04:53;47.17;;;36.33;;
11598;SDS011;5855;48.840;9.188;2023-05-16T06:07:20;41.95;;;34.10;;
11598;SDS011;5855;48.840;9.188;2023-05-16T06:09:46;39.95;;;32.40;;
11598;SDS011;5855;48.840;9.188;2023-05-16T06:12:13;37.92;;;32.15;;
11598;SDS011;5855;48.840;9.188;2023-05-16T06:14:42;36.55;;;30.98;;
11598;SDS011;5855;48.840;9.188;2023-05-16T06:17:09;36.97;;;31.02;;
11598;SDS011;5855;48.840;9.188;2023-05-16T06:19:36;36.67;;;30.38;;
11598;SDS011;5855;48.840;9.188;2023-05-16T06:22:03;38.65;;;30.90;;
11598;SDS011;5855;48.840;9.188;2023-05-16T06:24:30;34.83;;;29.85;;
11598;SDS011;5855;48.840;9.188;2023-05-16T06:26:57;37.83;;;30.73;;
11598;SDS011;5855;48.840;9.188;2023-05-16T06:29:24;35.50;;;29.55;;
11598;SDS011;5855;48.840;9.188;2023-05-16T06:31:52;32.03;;;27.80;;
11598;SDS011;5855;48.840;9.188;2023-05-16T06:34:19;31.90;;;28.20;;
11598;SDS011;5855;48.840;9.188;2023-05-16T06:36:51;31.42;;;27.27;;
11598;SDS011;5855;48.840;9.188;2023-05-16T06:39:18;33.70;;;28.58;;
11598;SDS011;5855;48.840;9.188;2023-05-16T06:41:45;29.50;;;25.90;;
11598;SDS011;5855;48.840;9.188;2023-05-16T06:44:12;30.08;;;26.40;;
11598;SDS011;5855;48.840;9.188;2023-05-16T06:46:38;29.50;;;25.50;;
11598;SDS011;5855;48.840;9.188;2023-05-16T06:49:07;30.95;;;26.52;;
11598;SDS011;5855;48.840;9.188;2023-05-16T06:51:34;30.15;;;24.25;;
11598;SDS011;5855;48.840;9.188;2023-05-16T06:54:00;27.88;;;24.85;;
11598;SDS011;5855;48.840;9.188;2023-05-16T06:56:28;28.52;;;24.20;;
11598;SDS011;5855;48.840;9.188;2023-05-16T06:58:55;28.45;;;23.85;;
11598;SDS011;5855;48.840;9.188;2023-05-16T07:01:22;25.33;;;22.65;;
11598;SDS011;5855;48.840;9.188;2023-05-16T07:03:49;27.27;;;23.65;;
11598;SDS011;5855;48.840;9.188;2023-05-16T07:06:17;24.55;;;21.88;;
11598;SDS011;5855;48.840;9.188;2023-05-16T07:08:44;24.58;;;20.08;;
11598;SDS011;5855;48.840;9.188;2023-05-16T07:11:11;22.05;;;19.15;;
11598;SDS011;5855;48.840;9.188;2023-05-16T07:13:38;20.13;;;18.02;;
11598;SDS011;5855;48.840;9.188;2023-05-16T07:16:05;19.75;;;17.65;;
11598;SDS011;5855;48.840;9.188;2023-05-16T07:18:32;21.45;;;19.20;;
11598;SDS011;5855;48.840;9.188;2023-05-16T07:20:59;18.70;;;16.83;;
11598;SDS011;5855;48.840;9.188;2023-05-16T07:23:27;19.38;;;16.77;;
11598;SDS011;5855;48.840;9.188;2023-05-16T07:25:54;16.77;;;15.05;;
11598;SDS011;5855;48.840;9.188;2023-05-16T07:28:21;16.83;;;15.05;;
11598;SDS011;5855;48.840;9.188;2023-05-16T07:30:48;14.20;;;12.70;;
11598;SDS011;5855;48.840;9.188;2023-05-16T07:33:15;13.50;;;12.20;;
11598;SDS011;5855;48.840;9.188;2023-05-16T07:35:42;13.70;;;12.30;;
11598;SDS011;5855;48.840;9.188;2023-05-16T07:38:09;13.63;;;12.23;;
11598;SDS011;5855;48.840;9.188;2023-05-16T07:40:37;13.55;;;12.05;;
11598;SDS011;5855;48.840;9.188;2023-05-16T07:43:04;13.07;;;11.77;;
11598;SDS011;5855;48.840;9.188;2023-05-16T07:45:30;12.45;;;11.15;;
11598;SDS011;5855;48.840;9.188;2023-05-16T07:47:57;11.95;;;10.75;;
11598;SDS011;5855;48.840;9.188;2023-05-16T07:50:24;11.38;;;10.15;;
11598;SDS011;5855;48.840;9.188;2023-05-16T07:52:51;11.35;;;10.25;;
11598;SDS011;5855;48.840;9.188;2023-05-16T07:55:18;11.88;;;10.65;;
11598;SDS011;5855;48.840;9.188;2023-05-16T07:57:47;11.57;;;10.48;;
11598;SDS011;5855;48.840;9.188;2023-05-16T08:00:15;12.15;;;10.75;;
11598;SDS011;5855;48.840;9.188;2023-05-16T08:02:42;10.77;;;9.77;;
11598;SDS011;5855;48.840;9.188;2023-05-16T08:05:09;11.70;;;10.60;;
11598;SDS011;5855;48.840;9.188;2023-05-16T08:07:36;10.10;;;9.13;;
11598;SDS011;5855;48.840;9.188;2023-05-16T08:10:03;9.93;;;9.07;;
11598;SDS011;5855;48.840;9.188;2023-05-16T08:12:30;10.48;;;9.57;;
11598;SDS011;5855;48.840;9.188;2023-05-16T08:14:59;10.10;;;9.10;;
11598;SDS011;5855;48.840;9.188;2023-05-16T08:17:25;9.48;;;8.45;;
11598;SDS011;5855;48.840;9.188;2023-05-16T08:19:52;11.05;;;9.95;;
11598;SDS011;5855;48.840;9.188;2023-05-16T08:22:20;10.50;;;9.52;;
11598;SDS011;5855;48.840;9.188;2023-05-16T08:24:46;12.32;;;11.13;;
11598;SDS011;5855;48.840;9.188;2023-05-16T08:27:14;12.18;;;10.98;;
11598;SDS011;5855;48.840;9.188;2023-05-16T08:29:40;13.40;;;12.10;;
11598;SDS011;5855;48.840;9.188;2023-05-16T08:32:09;14.18;;;12.77;;
11598;SDS011;5855;48.840;9.188;2023-05-16T08:34:36;13.15;;;11.90;;
11598;SDS011;5855;48.840;9.188;2023-05-16T08:37:03;14.57;;;13.07;;
11598;SDS011;5855;48.840;9.188;2023-05-16T08:39:30;15.13;;;13.57;;
11598;SDS011;5855;48.840;9.188;2023-05-16T08:41:57;15.75;;;14.15;;
11598;SDS011;5855;48.840;9.188;2023-05-16T08:44:24;15.18;;;13.68;;
11598;SDS011;5855;48.840;9.188;2023-05-16T08:46:51;15.63;;;13.82;;
11598;SDS011;5855;48.840;9.188;2023-05-16T08:49:20;16.30;;;14.70;;
11598;SDS011;5855;48.840;9.188;2023-05-16T08:51:48;17.15;;;15.32;;
11598;SDS011;5855;48.840;9.188;2023-05-16T08:54:17;16.02;;;14.43;;
11598;SDS011;5855;48.840;9.188;2023-05-16T08:56:44;15.75;;;14.23;;
11598;SDS011;5855;48.840;9.188;2023-05-16T08:59:14;16.85;;;14.98;;
11598;SDS011;5855;48.840;9.188;2023-05-16T09:01:41;16.45;;;14.85;;
11598;SDS011;5855;48.840;9.188;2023-05-16T09:04:08;16.02;;;14.43;;
11598;SDS011;5855;48.840;9.188;2023-05-16T09:06:36;16.45;;;14.85;;
11598;SDS011;5855;48.840;9.188;2023-05-16T09:09:03;16.67;;;14.98;;
11598;SDS011;5855;48.840;9.188;2023-05-16T09:11:32;16.10;;;14.45;;
11598;SDS011;5855;48.840;9.188;2023-05-16T09:13:59;18.55;;;16.65;;
11598;SDS011;5855;48.840;9.188;2023-05-16T09:16:25;19.00;;;16.33;;
11598;SDS011;5855;48.840;9.188;2023-05-16T09:18:54;18.63;;;16.73;;
11598;SDS011;5855;48.840;9.188;2023-05-16T09:21:22;19.58;;;17.52;;
11598;SDS011;5855;48.840;9.188;2023-05-16T09:23:57;19.65;;;17.73;;
11598;SDS011;5855;48.840;9.188;2023-05-16T09:26:28;18.92;;;16.90;;
11598;SDS011;5855;48.840;9.188;2023-05-16T09:28:55;20.48;;;18.35;;
11598;SDS011;5855;48.840;9.188;2023-05-16T09:31:23;20.00;;;17.90;;
11598;SDS011;5855;48.840;9.188;2023-05-16T09:33:51;19.75;;;17.65;;
11598;SDS011;5855;48.840;9.188;2023-05-16T09:36:18;19.63;;;17.63;;
11598;SDS011;5855;48.840;9.188;2023-05-16T09:38:45;20.83;;;18.48;;
11598;SDS011;5855;48.840;9.188;2023-05-16T09:41:13;20.13;;;17.88;;
11598;SDS011;5855;48.840;9.188;2023-05-16T09:43:40;20.17;;;18.10;;
11598;SDS011;5855;48.840;9.188;2023-05-16T09:46:10;19.48;;;17.15;;
11598;SDS011;5855;48.840;9.188;2023-05-16T09:48:39;19.60;;;17.40;;
11598;SDS011;5855;48.840;9.188;2023-05-16T09:51:07;19.27;;;17.00;;
11598;SDS011;5855;48.840;9.188;2023-05-16T09:53:34;18.70;;;16.67;;
11598;SDS011;5855;48.840;9.188;2023-05-16T09:56:03;18.17;;;16.30;;
11598;SDS011;5855;48.840;9.188;2023-05-16T09:58:33;19.38;;;17.40;;
11598;SDS011;5855;48.840;9.188;2023-05-16T10:01:01;18.88;;;16.98;;
11598;SDS011;5855;48.840;9.188;2023-05-16T10:03:28;19.73;;;17.73;;
11598;SDS011;5855;48.840;9.188;2023-05-16T10:05:55;20.13;;;16.63;;
11598;SDS011;5855;48.840;9.188;2023-05-16T10:08:23;18.80;;;16.88;;
11598;SDS011;5855;48.840;9.188;2023-05-16T10:10:52;18.65;;;16.75;;
11598;SDS011;5855;48.840;9.188;2023-05-16T10:13:20;21.75;;;17.02;;
11598;SDS011;5855;48.840;9.188;2023-05-16T10:15:49;17.85;;;15.68;;
11598;SDS011;5855;48.840;9.188;2023-05-16T10:18:20;19.25;;;16.48;;
11598;SDS011;5855;48.840;9.188;2023-05-16T10:20:48;18.52;;;16.00;;
11598;SDS011;5855;48.840;9.188;2023-05-16T10:23:19;16.95;;;15.25;;
11598;SDS011;5855;48.840;9.188;2023-05-16T10:25:46;17.52;;;15.40;;
11598;SDS011;5855;48.840;9.188;2023-05-16T10:28:14;17.33;;;15.52;;
11598;SDS011;5855;48.840;9.188;2023-05-16T10:30:42;17.02;;;14.70;;
11598;SDS011;5855;48.840;9.188;2023-05-16T10:33:12;16.63;;;14.95;;
11598;SDS011;5855;48.840;9.188;2023-05-16T10:35:40;17.42;;;15.45;;
11598;SDS011;5855;48.840;9.188;2023-05-16T10:38:08;16.48;;;14.77;;
11598;SDS011;5855;48.840;9.188;2023-05-16T10:40:37;18.05;;;16.15;;
11598;SDS011;5855;48.840;9.188;2023-05-16T10:43:05;15.40;;;13.77;;
11598;SDS011;5855;48.840;9.188;2023-05-16T10:45:33;18.33;;;14.15;;
11598;SDS011;5855;48.840;9.188;2023-05-16T10:48:04;15.32;;;13.73;;
11598;SDS011;5855;48.840;9.188;2023-05-16T10:50:35;17.30;;;13.85;;
11598;SDS011;5855;48.840;9.188;2023-05-16T10:53:10;15.68;;;14.07;;
11598;SDS011;5855;48.840;9.188;2023-05-16T10:55:47;16.25;;;14.25;;
11598;SDS011;5855;48.840;9.188;2023-05-16T10:58:41;14.75;;;13.25;;
11598;SDS011;5855;48.840;9.188;2023-05-16T11:01:19;14.65;;;13.13;;
11598;SDS011;5855;48.840;9.188;2023-05-16T11:04:00;16.67;;;13.10;;
11598;SDS011;5855;48.840;9.188;2023-05-16T11:06:29;14.43;;;12.93;;
11598;SDS011;5855;48.840;9.188;2023-05-16T11:09:07;13.57;;;12.18;;
11598;SDS011;5855;48.840;9.188;2023-05-16T11:11:46;15.23;;;12.88;;
11598;SDS011;5855;48.840;9.188;2023-05-16T11:14:19;13.13;;;11.20;;
11598;SDS011;5855;48.840;9.188;2023-05-16T11:16:47;11.93;;;10.65;;
11598;SDS011;5855;48.840;9.188;2023-05-16T11:19:27;12.18;;;10.80;;
11598;SDS011;5855;48.840;9.188;2023-05-16T11:24:54;10.75;;;8.95;;
11598;SDS011;5855;48.840;9.188;2023-05-16T11:27:25;9.52;;;8.25;;
11598;SDS011;5855;48.840;9.188;2023-05-16T11:29:56;11.15;;;9.75;;
11598;SDS011;5855;48.840;9.188;2023-05-16T11:32:25;10.75;;;9.43;;
11598;SDS011;5855;48.840;9.188;2023-05-16T11:34:52;9.70;;;8.68;;
11598;SDS011;5855;48.840;9.188;2023-05-16T11:37:19;10.27;;;8.60;;
11598;SDS011;5855;48.840;9.188;2023-05-16T11:39:48;11.77;;;8.07;;
11598;SDS011;5855;48.840;9.188;2023-05-16T11:42:15;9.52;;;8.63;;
11598;SDS011;5855;48.840;9.188;2023-05-16T11:44:42;9.05;;;8.15;;
11598;SDS011;5855;48.840;9.188;2023-05-16T11:47:09;9.05;;;8.15;;
11598;SDS011;5855;48.840;9.188;2023-05-16T11:49:36;9.70;;;7.85;;
11598;SDS011;5855;48.840;9.188;2023-05-16T11:52:03;9.55;;;7.95;;
11598;SDS011;5855;48.840;9.188;2023-05-16T11:54:30;11.63;;;8.93;;
11598;SDS011;5855;48.840;9.188;2023-05-16T11:56:59;9.65;;;8.35;;
11598;SDS011;5855;48.840;9.188;2023-05-16T11:59:27;8.90;;;8.00;;
11598;SDS011;5855;48.840;9.188;2023-05-16T12:01:54;9.82;;;8.60;;
11598;SDS011;5855;48.840;9.188;2023-05-16T12:04:20;8.95;;;8.15;;
11598;SDS011;5855;48.840;9.188;2023-05-16T12:06:56;8.55;;;7.63;;
11598;SDS011;5855;48.840;9.188;2023-05-16T12:09:26;8.45;;;7.53;;
11598;SDS011;5855;48.840;9.188;2023-05-16T12:11:53;7.07;;;6.45;;
11598;SDS011;5855;48.840;9.188;2023-05-16T12:14:22;7.72;;;6.95;;
11598;SDS011;5855;48.840;9.188;2023-05-16T12:16:50;7.00;;;6.30;;
11598;SDS011;5855;48.840;9.188;2023-05-16T12:19:17;5.78;;;5.18;;
11598;SDS011;5855;48.840;9.188;2023-05-16T12:21:45;6.10;;;5.50;;
11598;SDS011;5855;48.840;9.188;2023-05-16T12:24:12;6.07;;;4.95;;
11598;SDS011;5855;48.840;9.188;2023-05-16T12:26:39;8.88;;;4.63;;
11598;SDS011;5855;48.840;9.188;2023-05-16T12:29:07;5.63;;;4.20;;
11598;SDS011;5855;48.840;9.188;2023-05-16T12:31:37;4.15;;;3.85;;
11598;SDS011;5855;48.840;9.188;2023-05-16T12:34:13;4.15;;;3.70;;
11598;SDS011;5855;48.840;9.188;2023-05-16T12:36:41;3.85;;;3.47;;
11598;SDS011;5855;48.840;9.188;2023-05-16T12:39:10;3.90;;;3.60;;
11598;SDS011;5855;48.840;9.188;2023-05-16T12:41:39;4.10;;;3.72;;
11598;SDS011;5855;48.840;9.188;2023-05-16T12:44:10;4.60;;;3.80;;
11598;SDS011;5855;48.840;9.188;2023-05-16T12:46:41;3.60;;;3.30;;
11598;SDS011;5855;48.840;9.188;2023-05-16T12:49:12;4.07;;;2.92;;
11598;SDS011;5855;48.840;9.188;2023-05-16T12:51:39;3.17;;;2.88;;
11598;SDS011;5855;48.840;9.188;2023-05-16T12:54:13;4.93;;;2.92;;
11598;SDS011;5855;48.840;9.188;2023-05-16T12:56:40;3.15;;;2.85;;
11598;SDS011;5855;48.840;9.188;2023-05-16T12:59:07;3.22;;;3.03;;
11598;SDS011;5855;48.840;9.188;2023-05-16T13:01:36;4.40;;;2.80;;
11598;SDS011;5855;48.840;9.188;2023-05-16T13:04:06;2.72;;;2.53;;
11598;SDS011;5855;48.840;9.188;2023-05-16T13:06:33;2.70;;;2.50;;
11598;SDS011;5855;48.840;9.188;2023-05-16T13:09:02;2.80;;;2.60;;
11598;SDS011;5855;48.840;9.188;2023-05-16T13:11:29;2.92;;;2.42;;
11598;SDS011;5855;48.840;9.188;2023-05-16T13:13:56;3.00;;;2.15;;
11598;SDS011;5855;48.840;9.188;2023-05-16T13:16:23;3.50;;;2.28;;
11598;SDS011;5855;48.840;9.188;2023-05-16T13:18:49;2.40;;;2.20;;
11598;SDS011;5855;48.840;9.188;2023-05-16T13:21:18;2.47;;;2.03;;
11598;SDS011;5855;48.840;9.188;2023-05-16T13:23:46;4.15;;;2.30;;
11598;SDS011;5855;48.840;9.188;2023-05-16T13:26:13;2.40;;;2.20;;
11598;SDS011;5855;48.840;9.188;2023-05-16T13:28:39;3.63;;;2.30;;
11598;SDS011;5855;48.840;9.188;2023-05-16T13:31:06;2.40;;;2.20;;
11598;SDS011;5855;48.840;9.188;2023-05-16T13:33:33;4.50;;;2.00;;
11598;SDS011;5855;48.840;9.188;2023-05-16T13:36:01;7.13;;;2.60;;
11598;SDS011;5855;48.840;9.188;2023-05-16T13:38:30;3.88;;;2.20;;
11598;SDS011;5855;48.840;9.188;2023-05-16T13:40:56;2.40;;;2.20;;
11598;SDS011;5855;48.840;9.188;2023-05-16T13:43:23;2.60;;;1.98;;
11598;SDS011;5855;48.840;9.188;2023-05-16T13:45:50;3.28;;;2.08;;
11598;SDS011;5855;48.840;9.188;2023-05-16T13:48:17;3.05;;;2.20;;
11598;SDS011;5855;48.840;9.188;2023-05-16T13:50:44;2.78;;;2.17;;
11598;SDS011;5855;48.840;9.188;2023-05-16T13:53:11;3.03;;;2.30;;
11598;SDS011;5855;48.840;9.188;2023-05-16T13:55:39;3.65;;;2.10;;
11598;SDS011;5855;48.840;9.188;2023-05-16T13:58:06;3.33;;;2.20;;
11598;SDS011;5855;48.840;9.188;2023-05-16T14:00:33;2.15;;;1.95;;
11598;SDS011;5855;48.840;9.188;2023-05-16T14:03:00;2.63;;;2.08;;
11598;SDS011;5855;48.840;9.188;2023-05-16T14:05:27;2.30;;;1.95;;
11598;SDS011;5855;48.840;9.188;2023-05-16T14:07:54;2.20;;;2.00;;
11598;SDS011;5855;48.840;9.188;2023-05-16T14:10:21;2.80;;;2.40;;
11598;SDS011;5855;48.840;9.188;2023-05-16T14:12:49;3.08;;;2.33;;
11598;SDS011;5855;48.840;9.188;2023-05-16T14:15:17;3.45;;;2.38;;
11598;SDS011;5855;48.840;9.188;2023-05-16T14:17:44;2.40;;;2.20;;
11598;SDS011;5855;48.840;9.188;2023-05-16T14:20:11;3.70;;;2.30;;
11598;SDS011;5855;48.840;9.188;2023-05-16T14:22:39;2.75;;;2.22;;
11598;SDS011;5855;48.840;9.188;2023-05-16T14:25:06;2.75;;;2.10;;
11598;SDS011;5855;48.840;9.188;2023-05-16T14:27:33;2.13;;;1.92;;
11598;SDS011;5855;48.840;9.188;2023-05-16T14:30:01;3.67;;;2.22;;
11598;SDS011;5855;48.840;9.188;2023-05-16T14:32:29;2.35;;;2.08;;
11598;SDS011;5855;48.840;9.188;2023-05-16T14:34:55;3.47;;;1.80;;
11598;SDS011;5855;48.840;9.188;2023-05-16T14:37:22;1.80;;;1.67;;
11598;SDS011;5855;48.840;9.188;2023-05-16T14:39:49;2.50;;;1.73;;
11598;SDS011;5855;48.840;9.188;2023-05-16T14:42:17;2.45;;;1.67;;
11598;SDS011;5855;48.840;9.188;2023-05-16T14:44:44;2.13;;;1.70;;
11598;SDS011;5855;48.840;9.188;2023-05-16T14:47:12;3.88;;;1.73;;
11598;SDS011;5855;48.840;9.188;2023-05-16T14:49:39;2.70;;;1.45;;